Terminal Aerodrome Forecast
Issued by NWS

Home | Current Version | Previous Version | Text Only | Print | Product List | Glossary Off
Versions: 1 2 3 4 5 6 7 8 9 10 11 12 13 14 15 16 17

000
FTUS43 KMPX 182300
TAFRWF
TAF
KRWF 182330Z 1900/1924 17012KT P6SM FEW050
     FM190900 17014G22KT 5SM BR BKN008 OVC015
     FM191400 19020G26KT P6SM VCSH SCT008 OVC020
     FM192000 20018G25KT P6SM SCT020 OVC035=

USA.gov is the U.S. government's official web portal to all federal, state and local government web resources and services.